createdAt,value
2018-07-13T00:00:14.005Z,2.53
2018-07-13T00:02:42.594Z,2.63
2018-07-13T00:05:11.477Z,2.83
2018-07-13T00:07:39.981Z,2.80
2018-07-13T00:10:08.511Z,3.27
2018-07-13T00:12:36.971Z,2.50
2018-07-13T00:15:07.756Z,2.80
2018-07-13T00:17:36.363Z,2.90
2018-07-13T00:20:05.444Z,2.70
2018-07-13T00:22:34.015Z,3.07
2018-07-13T00:25:03.317Z,2.50
2018-07-13T00:27:32.500Z,2.70
2018-07-13T00:30:01.492Z,2.80
2018-07-13T00:32:30.839Z,2.93
2018-07-13T00:35:00.002Z,2.47
2018-07-13T00:37:29.123Z,2.47
2018-07-13T00:39:58.454Z,2.30
2018-07-13T00:42:27.663Z,2.30
2018-07-13T00:44:56.650Z,3.13
2018-07-13T00:47:25.696Z,2.13
2018-07-13T00:49:54.963Z,2.50
2018-07-13T00:52:23.977Z,2.47
2018-07-13T00:54:53.198Z,2.67
2018-07-13T00:57:22.208Z,2.40
2018-07-13T00:59:51.455Z,2.10
2018-07-13T01:02:20.691Z,2.30
2018-07-13T01:04:49.917Z,2.47
2018-07-13T01:07:18.911Z,2.80
2018-07-13T01:09:48.208Z,2.53
2018-07-13T01:12:17.409Z,2.17
2018-07-13T01:14:46.694Z,2.43
2018-07-13T01:17:15.297Z,2.33
2018-07-13T01:19:43.854Z,2.73
2018-07-13T01:22:13.127Z,2.20
2018-07-13T01:24:42.375Z,2.27
2018-07-13T01:27:11.563Z,2.60
2018-07-13T01:29:40.569Z,2.67
2018-07-13T01:32:09.592Z,2.83
2018-07-13T01:34:38.874Z,2.50
2018-07-13T01:37:07.388Z,2.60
2018-07-13T01:39:36.544Z,2.70
2018-07-13T01:42:05.796Z,2.27
2018-07-13T01:44:34.963Z,2.63
2018-07-13T01:47:03.994Z,2.27
2018-07-13T01:49:33.232Z,2.60
2018-07-13T01:52:02.455Z,2.50
2018-07-13T01:54:31.676Z,2.73
2018-07-13T01:57:00.927Z,2.67
2018-07-13T01:59:30.144Z,2.50
2018-07-13T02:01:59.351Z,2.77
2018-07-13T02:04:28.580Z,2.43
2018-07-13T02:06:57.575Z,2.00
2018-07-13T02:09:26.851Z,2.67
2018-07-13T02:11:56.076Z,2.77
2018-07-13T02:14:24.639Z,2.80
2018-07-13T02:16:53.213Z,3.10
2018-07-13T02:19:21.718Z,3.30
2018-07-13T02:21:50.225Z,3.10
2018-07-13T02:24:18.728Z,3.03
2018-07-13T02:26:47.218Z,3.17
2018-07-13T02:29:15.722Z,3.40
2018-07-13T02:31:44.280Z,3.93
2018-07-13T02:34:12.809Z,3.50
2018-07-13T02:36:41.323Z,3.80
2018-07-13T02:39:11.311Z,3.80
2018-07-13T02:41:40.575Z,4.43
2018-07-13T02:44:09.695Z,4.10
2018-07-13T02:46:39.091Z,4.80
2018-07-13T02:49:08.159Z,4.23
2018-07-13T02:51:36.680Z,4.17
2018-07-13T02:54:05.273Z,4.70
2018-07-13T02:56:34.452Z,4.40
2018-07-13T02:59:03.462Z,4.77
2018-07-13T03:01:32.503Z,3.90
2018-07-13T03:04:01.540Z,4.43
2018-07-13T03:06:30.766Z,4.30
2018-07-13T03:09:00.015Z,4.20
2018-07-13T03:11:29.323Z,4.40
2018-07-13T03:13:58.664Z,4.10
2018-07-13T03:16:27.654Z,4.43
2018-07-13T03:18:56.208Z,4.60
2018-07-13T03:21:24.716Z,4.03
2018-07-13T03:23:53.194Z,5.40
2018-07-13T03:26:21.746Z,4.37
2018-07-13T03:28:50.267Z,3.80
2018-07-13T03:31:18.767Z,4.90
2018-07-13T03:33:47.288Z,4.47
2018-07-13T03:36:15.782Z,4.60
2018-07-13T03:38:44.616Z,4.50
2018-07-13T03:41:13.174Z,4.50
2018-07-13T03:43:41.731Z,4.33
2018-07-13T03:46:10.347Z,4.53
2018-07-13T03:48:39.291Z,4.07
2018-07-13T03:51:08.215Z,4.23
2018-07-13T03:53:36.836Z,4.27
2018-07-13T03:56:05.857Z,4.50
2018-07-13T03:58:34.441Z,4.87
2018-07-13T04:01:02.961Z,3.97
2018-07-13T04:03:31.513Z,4.43
2018-07-13T04:06:00.053Z,4.57
2018-07-13T04:08:28.634Z,4.10
2018-07-13T04:10:57.172Z,4.83
2018-07-13T04:13:25.679Z,4.77
2018-07-13T04:15:54.302Z,4.80
2018-07-13T04:18:23.775Z,4.50
2018-07-13T04:20:53.212Z,4.93
2018-07-13T04:23:23.190Z,4.77
2018-07-13T04:25:52.540Z,4.83
2018-07-13T04:28:21.921Z,4.70
2018-07-13T04:30:50.526Z,5.03
2018-07-13T04:33:19.130Z,4.50
2018-07-13T04:35:47.645Z,4.73
2018-07-13T04:38:16.146Z,4.47
2018-07-13T04:40:44.702Z,4.53
2018-07-13T04:43:13.239Z,4.10
2018-07-13T04:45:41.834Z,5.17
2018-07-13T04:48:10.444Z,4.67
2018-07-13T04:50:39.015Z,3.97
2018-07-13T04:53:07.671Z,4.17
2018-07-13T04:55:36.352Z,3.47
2018-07-13T04:58:04.971Z,3.47
2018-07-13T05:00:33.618Z,3.80
2018-07-13T05:03:02.168Z,4.03
2018-07-13T05:05:30.739Z,4.50
2018-07-13T05:07:59.568Z,5.27
2018-07-13T05:10:28.132Z,4.30
2018-07-13T05:12:56.663Z,4.70
2018-07-13T05:15:25.195Z,3.73
2018-07-13T05:17:53.923Z,3.93
2018-07-13T05:20:22.492Z,4.07
2018-07-13T05:22:51.100Z,4.00
2018-07-13T05:25:19.680Z,3.87
2018-07-13T05:27:49.139Z,3.30
2018-07-13T05:30:17.743Z,4.10
2018-07-13T05:32:46.383Z,4.03
2018-07-13T05:35:15.079Z,3.77
2018-07-13T05:37:43.654Z,4.47
2018-07-13T05:40:12.283Z,4.63
2018-07-13T05:42:40.911Z,3.40
2018-07-13T05:45:09.560Z,3.90
2018-07-13T05:47:38.330Z,3.63
2018-07-13T05:50:07.103Z,3.60
2018-07-13T05:52:35.783Z,4.00
2018-07-13T05:55:04.448Z,4.27
2018-07-13T05:57:33.102Z,3.43
2018-07-13T06:00:01.716Z,3.93
2018-07-13T06:02:30.563Z,3.77
2018-07-13T06:04:59.241Z,3.53
2018-07-13T06:07:27.791Z,4.37
2018-07-13T06:09:56.448Z,6.67
2018-07-13T06:12:25.061Z,4.10
2018-07-13T06:14:53.601Z,3.80
2018-07-13T06:17:22.133Z,4.30
2018-07-13T06:19:50.650Z,3.97
2018-07-13T06:22:19.198Z,4.00
2018-07-13T06:24:48.359Z,4.27
2018-07-13T06:27:17.355Z,4.20
2018-07-13T06:29:46.778Z,3.87
2018-07-13T06:32:16.095Z,4.23
2018-07-13T06:34:45.268Z,4.90
2018-07-13T06:37:13.808Z,4.43
2018-07-13T06:39:42.431Z,4.30
2018-07-13T06:42:11.173Z,4.43
2018-07-13T06:44:39.969Z,5.27
2018-07-13T06:47:08.551Z,4.40
2018-07-13T06:49:37.190Z,4.57
2018-07-13T06:52:06.533Z,4.73
2018-07-13T06:54:35.735Z,4.50
2018-07-13T06:57:04.299Z,4.57
2018-07-13T06:59:32.855Z,4.17
2018-07-13T07:02:01.431Z,4.40
2018-07-13T07:04:31.398Z,4.53
2018-07-13T07:07:00.284Z,4.47
2018-07-13T07:09:28.734Z,4.43
2018-07-13T07:12:02.631Z,4.40
2018-07-13T07:14:31.868Z,4.07
2018-07-13T07:17:01.132Z,4.30
2018-07-13T07:19:30.355Z,4.53
2018-07-13T07:21:59.388Z,4.37
2018-07-13T07:24:28.041Z,4.50
2018-07-13T07:26:56.526Z,4.10
2018-07-13T07:29:25.672Z,4.00
2018-07-13T07:31:54.179Z,4.33
2018-07-13T07:34:22.717Z,4.30
2018-07-13T07:36:51.788Z,4.07
2018-07-13T07:39:20.374Z,3.90
2018-07-13T07:41:48.983Z,3.80
2018-07-13T07:44:17.527Z,4.00
2018-07-13T07:46:46.084Z,4.70
2018-07-13T07:49:14.614Z,4.47
2018-07-13T07:51:43.211Z,3.97
2018-07-13T07:54:11.760Z,3.57
2018-07-13T07:56:40.334Z,4.10
2018-07-13T07:59:08.888Z,3.90
2018-07-13T08:01:37.421Z,3.90
2018-07-13T08:04:05.978Z,3.43
2018-07-13T08:06:34.692Z,3.90
2018-07-13T08:09:03.426Z,4.23
2018-07-13T08:11:32.011Z,3.97
2018-07-13T08:14:00.687Z,3.80
2018-07-13T08:16:29.152Z,4.00
2018-07-13T08:18:57.682Z,3.60
2018-07-13T08:21:26.323Z,4.50
2018-07-13T08:23:55.015Z,4.00
2018-07-13T08:26:23.695Z,4.10
2018-07-13T08:28:52.379Z,3.87
2018-07-13T08:31:21.038Z,3.47
2018-07-13T08:33:49.560Z,3.77
2018-07-13T08:36:18.073Z,3.60
2018-07-13T08:38:46.616Z,3.63
2018-07-13T08:41:15.347Z,3.40
2018-07-13T08:43:43.947Z,3.17
2018-07-13T08:46:12.488Z,3.60
2018-07-13T08:48:41.036Z,4.20
2018-07-13T08:51:10.270Z,4.00
2018-07-13T08:53:39.345Z,3.80
2018-07-13T08:56:08.624Z,3.90
2018-07-13T08:58:37.551Z,3.13
2018-07-13T09:01:06.784Z,3.30
2018-07-13T09:03:35.839Z,3.27
2018-07-13T09:06:04.858Z,3.30
2018-07-13T09:08:34.044Z,3.57
2018-07-13T09:11:03.292Z,3.60
2018-07-13T09:13:32.817Z,3.50
2018-07-13T09:16:02.143Z,3.47
2018-07-13T09:18:31.170Z,3.70
2018-07-13T09:21:00.428Z,3.50
2018-07-13T09:23:29.389Z,3.50
2018-07-13T09:25:58.608Z,3.53
2018-07-13T09:28:27.874Z,3.53
2018-07-13T09:30:56.441Z,3.43
2018-07-13T09:33:25.757Z,3.87
2018-07-13T09:35:54.816Z,3.97
2018-07-13T09:38:24.051Z,3.20
2018-07-13T09:40:53.310Z,3.20
2018-07-13T09:43:22.636Z,3.47
2018-07-13T09:45:51.924Z,3.43
2018-07-13T09:48:21.089Z,3.10
2018-07-13T09:50:50.119Z,3.03
2018-07-13T09:53:19.202Z,2.73
2018-07-13T09:55:48.205Z,3.33
2018-07-13T09:58:17.704Z,3.20
2018-07-13T10:00:52.165Z,2.40
2018-07-13T10:03:21.384Z,2.70
2018-07-13T10:05:50.382Z,3.10
2018-07-13T10:08:19.444Z,3.23
2018-07-13T10:10:48.642Z,2.53
2018-07-13T10:13:17.907Z,2.73
2018-07-13T10:15:47.107Z,3.00
2018-07-13T10:18:16.368Z,2.90
2018-07-13T10:20:45.626Z,2.60
2018-07-13T10:23:14.995Z,2.60
2018-07-13T10:25:44.216Z,2.50
2018-07-13T10:28:13.354Z,2.40
2018-07-13T10:30:42.655Z,2.67
2018-07-13T10:33:11.743Z,2.40
2018-07-13T10:35:41.404Z,2.93
2018-07-13T10:38:10.164Z,2.80
2018-07-13T10:40:39.361Z,3.00
2018-07-13T10:43:08.601Z,2.83
2018-07-13T10:45:37.589Z,2.20
2018-07-13T10:48:06.640Z,2.30
2018-07-13T10:50:35.812Z,2.37
2018-07-13T10:53:05.100Z,2.60
2018-07-13T10:55:34.614Z,2.20
2018-07-13T10:58:03.763Z,2.60
2018-07-13T11:00:32.970Z,2.37
2018-07-13T11:03:02.212Z,2.20
2018-07-13T11:05:31.244Z,2.80
2018-07-13T11:08:00.249Z,2.80
2018-07-13T11:10:29.479Z,1.90
2018-07-13T11:12:58.719Z,2.40
2018-07-13T11:15:27.931Z,2.80
2018-07-13T11:17:57.161Z,2.67
2018-07-13T11:20:26.164Z,2.50
2018-07-13T11:22:55.578Z,2.00
2018-07-13T11:25:24.836Z,2.60
2018-07-13T11:27:53.845Z,2.20
2018-07-13T11:30:23.095Z,2.53
2018-07-13T11:32:52.349Z,2.70
2018-07-13T11:35:21.377Z,2.77
2018-07-13T11:37:50.348Z,2.50
2018-07-13T11:40:19.380Z,2.67
2018-07-13T11:42:48.719Z,2.50
2018-07-13T11:45:18.066Z,2.40
2018-07-13T11:47:47.317Z,2.50
2018-07-13T11:50:16.522Z,2.53
2018-07-13T11:52:45.739Z,2.30
2018-07-13T11:55:15.273Z,2.40
2018-07-13T11:57:44.591Z,2.50
2018-07-13T12:00:13.826Z,2.37
2018-07-13T12:02:43.200Z,2.60
2018-07-13T12:05:12.475Z,2.80
2018-07-13T12:07:41.827Z,2.80
2018-07-13T12:10:10.683Z,2.80
2018-07-13T12:12:39.720Z,2.70
2018-07-13T12:15:08.562Z,2.67
2018-07-13T12:17:37.587Z,3.10
2018-07-13T12:20:06.603Z,2.77
2018-07-13T12:22:35.830Z,2.93
2018-07-13T12:25:05.091Z,2.70
2018-07-13T12:27:34.618Z,3.10
2018-07-13T12:30:03.731Z,2.60
2018-07-13T12:32:32.970Z,2.50
2018-07-13T12:35:02.179Z,2.93
2018-07-13T12:37:31.225Z,2.67
2018-07-13T12:40:00.606Z,2.33
2018-07-13T12:42:29.851Z,2.27
2018-07-13T12:44:59.080Z,2.70
2018-07-13T12:47:28.107Z,2.30
2018-07-13T12:49:57.337Z,2.80
2018-07-13T12:52:26.347Z,2.83
2018-07-13T12:54:55.587Z,2.57
2018-07-13T12:57:24.871Z,2.43
2018-07-13T12:59:54.344Z,2.53
2018-07-13T13:02:23.696Z,2.83
2018-07-13T13:04:52.899Z,2.80
2018-07-13T13:07:21.890Z,2.50
2018-07-13T13:09:50.923Z,2.60
2018-07-13T13:12:20.210Z,2.33
2018-07-13T13:14:49.411Z,2.30
2018-07-13T13:17:18.621Z,2.63
2018-07-13T13:19:47.880Z,2.90
2018-07-13T13:22:17.096Z,2.50
2018-07-13T13:24:45.848Z,2.30
2018-07-13T13:27:14.372Z,2.67
2018-07-13T13:29:43.038Z,2.13
2018-07-13T13:32:11.592Z,2.57
2018-07-13T13:34:40.119Z,2.43
2018-07-13T13:37:08.632Z,2.70
2018-07-13T13:39:37.931Z,2.77
2018-07-13T13:42:07.146Z,2.60
2018-07-13T13:44:36.392Z,2.83
2018-07-13T13:47:05.380Z,2.67
2018-07-13T13:49:34.419Z,2.57
2018-07-13T13:52:03.004Z,3.20
2018-07-13T13:54:32.080Z,2.60
2018-07-13T13:57:01.317Z,2.73
2018-07-13T13:59:30.555Z,3.20
2018-07-13T14:01:59.773Z,2.70
2018-07-13T14:04:29.051Z,2.43
2018-07-13T14:06:58.228Z,3.17
2018-07-13T14:09:27.457Z,3.13
2018-07-13T14:11:56.533Z,2.53
2018-07-13T14:14:25.753Z,2.73
2018-07-13T14:16:54.943Z,2.63
2018-07-13T14:19:24.155Z,2.47
2018-07-13T14:21:53.555Z,2.87
2018-07-13T14:24:22.815Z,2.47
2018-07-13T14:26:52.032Z,2.50
2018-07-13T14:29:21.272Z,2.30
2018-07-13T14:31:50.467Z,2.83
2018-07-13T14:34:19.729Z,2.90
2018-07-13T14:36:48.983Z,3.13
2018-07-13T14:39:18.157Z,2.80
2018-07-13T14:41:47.254Z,2.90
2018-07-13T14:44:16.415Z,2.60
2018-07-13T14:46:45.726Z,2.50
2018-07-13T14:49:14.925Z,3.00
2018-07-13T14:51:43.877Z,2.70
2018-07-13T14:54:12.505Z,2.57
2018-07-13T14:56:41.585Z,2.50
2018-07-13T14:59:10.829Z,2.60
2018-07-13T15:01:40.023Z,3.33
2018-07-13T15:04:09.261Z,2.90
2018-07-13T15:06:38.465Z,2.93
2018-07-13T15:09:08.152Z,2.93
2018-07-13T15:11:37.083Z,3.13
2018-07-13T15:14:06.352Z,3.10
2018-07-13T15:16:35.567Z,2.90
2018-07-13T15:19:04.606Z,3.13
2018-07-13T15:21:33.840Z,2.50
2018-07-13T15:24:02.849Z,2.80
2018-07-13T15:26:32.460Z,3.17
2018-07-13T15:29:01.807Z,3.30
2018-07-13T15:31:30.728Z,3.63
2018-07-13T15:33:59.988Z,3.77
2018-07-13T15:36:29.163Z,3.00
2018-07-13T15:38:58.451Z,3.00
2018-07-13T15:41:27.666Z,3.57
2018-07-13T15:43:56.876Z,2.90
2018-07-13T15:46:25.900Z,2.87
2018-07-13T15:48:54.919Z,2.70
2018-07-13T15:51:24.155Z,2.90
2018-07-13T15:53:53.400Z,2.20
2018-07-13T15:56:22.613Z,3.10
2018-07-13T15:58:51.883Z,2.77
2018-07-13T16:01:20.836Z,3.37
2018-07-13T16:03:49.894Z,2.60
2018-07-13T16:06:19.134Z,3.20
2018-07-13T16:08:48.504Z,2.83
2018-07-13T16:11:17.572Z,2.60
2018-07-13T16:13:47.100Z,2.90
2018-07-13T16:16:16.244Z,2.40
2018-07-13T16:18:45.443Z,2.80
2018-07-13T16:21:14.669Z,3.00
2018-07-13T16:23:43.660Z,2.43
2018-07-13T16:26:12.911Z,3.30
2018-07-13T16:28:42.216Z,2.53
2018-07-13T16:31:11.440Z,2.83
2018-07-13T16:33:40.687Z,3.30
2018-07-13T16:36:09.963Z,2.80
2018-07-13T16:38:39.042Z,2.77
2018-07-13T16:41:08.465Z,3.07
2018-07-13T16:43:37.709Z,2.50
2018-07-13T16:46:07.240Z,2.97
2018-07-13T16:48:36.555Z,2.67
2018-07-13T16:51:05.762Z,2.50
2018-07-13T16:53:35.025Z,2.47
2018-07-13T16:56:04.306Z,3.17
2018-07-13T16:58:33.651Z,2.97
2018-07-13T17:01:02.677Z,2.83
2018-07-13T17:03:31.760Z,3.27
2018-07-13T17:06:00.708Z,3.03
2018-07-13T17:08:29.953Z,2.67
2018-07-13T17:10:58.668Z,2.77
2018-07-13T17:13:27.992Z,2.73
2018-07-13T17:15:57.268Z,3.47
2018-07-13T17:18:26.437Z,2.60
2018-07-13T17:20:55.694Z,2.30
2018-07-13T17:23:24.720Z,2.70
2018-07-13T17:25:53.959Z,2.40
2018-07-13T17:28:22.968Z,2.50
2018-07-13T17:30:52.224Z,3.00
2018-07-13T17:33:21.451Z,2.60
2018-07-13T17:35:50.672Z,2.57
2018-07-13T17:38:19.902Z,2.60
2018-07-13T17:40:49.107Z,2.60
2018-07-13T17:43:18.331Z,2.87
2018-07-13T17:45:47.572Z,3.07
2018-07-13T17:48:16.796Z,2.97
2018-07-13T17:50:45.819Z,2.87
2018-07-13T17:53:14.840Z,2.97
2018-07-13T17:55:43.884Z,3.63
2018-07-13T17:58:13.113Z,3.47
2018-07-13T18:00:42.359Z,3.43
2018-07-13T18:03:11.334Z,3.00
2018-07-13T18:05:39.994Z,2.63
2018-07-13T18:08:09.236Z,2.73
2018-07-13T18:10:38.237Z,3.00
2018-07-13T18:13:07.564Z,2.97
2018-07-13T18:15:36.866Z,2.73
2018-07-13T18:18:06.180Z,2.57
2018-07-13T18:20:35.135Z,2.50
2018-07-13T18:23:04.471Z,2.53
2018-07-13T18:25:33.813Z,2.73
2018-07-13T18:28:02.862Z,3.37
2018-07-13T18:30:32.023Z,3.73
2018-07-13T18:33:01.297Z,4.60
2018-07-13T18:35:30.503Z,2.70
2018-07-13T18:37:59.354Z,2.97
2018-07-13T18:40:28.340Z,2.90
2018-07-13T18:42:57.397Z,2.53
2018-07-13T18:45:26.434Z,2.87
2018-07-13T18:47:55.654Z,2.90
2018-07-13T18:50:24.883Z,3.80
2018-07-13T18:52:54.113Z,2.83
2018-07-13T18:55:24.092Z,3.10
2018-07-13T18:57:53.339Z,2.77
2018-07-13T19:00:22.560Z,2.87
2018-07-13T19:02:51.791Z,3.17
2018-07-13T19:05:20.780Z,3.30
2018-07-13T19:07:49.843Z,4.10
2018-07-13T19:10:18.376Z,3.97
2018-07-13T19:12:46.927Z,3.30
2018-07-13T19:15:15.443Z,3.50
2018-07-13T19:17:43.948Z,3.20
2018-07-13T19:20:12.473Z,3.50
2018-07-13T19:22:41.128Z,3.87
2018-07-13T19:25:10.332Z,2.90
2018-07-13T19:27:39.776Z,2.80
2018-07-13T19:30:08.738Z,4.00
2018-07-13T19:32:37.792Z,7.60
2018-07-13T19:35:07.017Z,6.03
2018-07-13T19:37:36.265Z,5.23
2018-07-13T19:40:05.274Z,4.17
2018-07-13T19:42:34.462Z,3.87
2018-07-13T19:45:03.889Z,4.13
2018-07-13T19:47:33.140Z,4.13
2018-07-13T19:50:01.712Z,3.43
2018-07-13T19:52:30.784Z,4.23
2018-07-13T19:55:00.087Z,5.90
2018-07-13T19:57:29.368Z,6.10
2018-07-13T19:59:58.516Z,8.97
2018-07-13T20:02:27.722Z,4.27
2018-07-13T20:04:56.734Z,4.10
2018-07-13T20:07:26.162Z,3.90
2018-07-13T20:09:55.401Z,6.63
2018-07-13T20:12:24.388Z,4.33
2018-07-13T20:14:53.427Z,5.57
2018-07-13T20:17:22.685Z,4.47
2018-07-13T20:19:51.891Z,3.70
2018-07-13T20:22:21.134Z,4.80
2018-07-13T20:24:50.691Z,4.80
2018-07-13T20:27:19.218Z,3.67
2018-07-13T20:29:48.404Z,4.00
2018-07-13T20:32:17.464Z,4.83
2018-07-13T20:34:46.438Z,7.30
2018-07-13T20:37:15.695Z,4.00
2018-07-13T20:39:44.915Z,4.43
2018-07-13T20:42:14.156Z,3.27
2018-07-13T20:44:43.145Z,2.77
2018-07-13T20:47:12.172Z,3.20
2018-07-13T20:49:41.433Z,3.30
2018-07-13T20:52:10.731Z,2.83
2018-07-13T20:54:39.247Z,3.60
2018-07-13T20:57:07.790Z,3.63
2018-07-13T20:59:36.953Z,3.20
2018-07-13T21:02:06.206Z,3.17
2018-07-13T21:04:35.255Z,2.93
2018-07-13T21:07:04.379Z,3.20
2018-07-13T21:09:33.589Z,3.50
2018-07-13T21:12:02.935Z,3.20
2018-07-13T21:14:32.087Z,2.80
2018-07-13T21:17:01.350Z,3.40
2018-07-13T21:19:30.578Z,3.00
2018-07-13T21:21:59.791Z,3.40
2018-07-13T21:24:29.188Z,3.20
2018-07-13T21:26:58.471Z,3.13
2018-07-13T21:29:27.691Z,3.07
2018-07-13T21:31:56.660Z,2.93
2018-07-13T21:34:25.927Z,4.57
2018-07-13T21:36:55.295Z,3.20
2018-07-13T21:39:24.568Z,3.43
2018-07-13T21:41:53.779Z,3.30
2018-07-13T21:44:23.024Z,2.97
2018-07-13T21:46:52.248Z,3.13
2018-07-13T21:49:21.490Z,3.07
2018-07-13T21:51:50.654Z,2.97
2018-07-13T21:54:19.930Z,2.60
2018-07-13T21:56:49.163Z,3.23
2018-07-13T21:59:18.386Z,3.00
2018-07-13T22:01:47.476Z,3.03
2018-07-13T22:04:16.845Z,3.20
2018-07-13T22:06:46.052Z,2.83
2018-07-13T22:09:15.301Z,2.97
2018-07-13T22:11:44.284Z,3.27
2018-07-13T22:14:13.532Z,3.30
2018-07-13T22:16:42.765Z,3.20
2018-07-13T22:19:11.763Z,3.03
2018-07-13T22:21:41.008Z,2.90
2018-07-13T22:24:10.260Z,3.93
2018-07-13T22:26:39.550Z,3.20
2018-07-13T22:29:08.693Z,3.23
2018-07-13T22:31:37.946Z,3.10
2018-07-13T22:34:06.961Z,3.03
2018-07-13T22:36:36.169Z,2.87
2018-07-13T22:39:06.936Z,3.30
2018-07-13T22:41:36.535Z,3.53
2018-07-13T22:44:05.741Z,3.47
2018-07-13T22:46:35.049Z,3.50
2018-07-13T22:49:04.269Z,3.33
2018-07-13T22:51:33.523Z,3.60
2018-07-13T22:54:02.747Z,3.20
2018-07-13T22:56:31.947Z,2.93
2018-07-13T22:59:01.187Z,2.83
2018-07-13T23:01:30.377Z,3.30
2018-07-13T23:03:59.624Z,2.90
2018-07-13T23:06:28.875Z,3.13
2018-07-13T23:08:58.095Z,3.30
2018-07-13T23:11:27.331Z,3.50
2018-07-13T23:13:56.808Z,3.60
2018-07-13T23:16:25.780Z,3.20
2018-07-13T23:18:54.957Z,3.60
2018-07-13T23:21:25.221Z,3.70
2018-07-13T23:23:54.470Z,3.47
2018-07-13T23:26:23.635Z,3.57
2018-07-13T23:28:52.671Z,3.40
2018-07-13T23:31:21.912Z,3.10
2018-07-13T23:33:51.126Z,4.10
2018-07-13T23:36:20.375Z,3.57
2018-07-13T23:38:49.379Z,3.40
2018-07-13T23:41:18.614Z,3.60
2018-07-13T23:43:47.829Z,3.50
2018-07-13T23:46:17.522Z,3.00
2018-07-13T23:48:46.690Z,3.30
2018-07-13T23:51:15.687Z,4.00
2018-07-13T23:53:44.966Z,3.70
2018-07-13T23:56:13.959Z,3.80
2018-07-13T23:58:43.072Z,3.93
